sensor_id;sensor_type;location;lat;lon;timestamp;P1;durP1;ratioP1;P2;durP2;ratioP2
72065;SDS011;59939;52.516;13.420;2023-06-22T00:02:00;20.45;;;13.65;;
72065;SDS011;59939;52.516;13.420;2023-06-22T00:05:05;21.05;;;12.52;;
72065;SDS011;59939;52.516;13.420;2023-06-22T00:08:09;21.48;;;13.65;;
72065;SDS011;59939;52.516;13.420;2023-06-22T00:11:14;20.02;;;12.80;;
72065;SDS011;59939;52.516;13.420;2023-06-22T00:14:18;21.13;;;13.80;;
72065;SDS011;59939;52.516;13.420;2023-06-22T00:17:24;20.80;;;13.82;;
72065;SDS011;59939;52.516;13.420;2023-06-22T00:20:28;23.20;;;13.07;;
72065;SDS011;59939;52.516;13.420;2023-06-22T00:23:43;20.83;;;14.00;;
72065;SDS011;59939;52.516;13.420;2023-06-22T00:26:48;21.23;;;12.88;;
72065;SDS011;59939;52.516;13.420;2023-06-22T00:29:52;24.98;;;14.75;;
72065;SDS011;59939;52.516;13.420;2023-06-22T00:32:58;21.58;;;13.68;;
72065;SDS011;59939;52.516;13.420;2023-06-22T00:36:03;21.90;;;15.05;;
72065;SDS011;59939;52.516;13.420;2023-06-22T00:39:07;22.65;;;14.82;;
72065;SDS011;59939;52.516;13.420;2023-06-22T00:42:13;23.73;;;14.57;;
72065;SDS011;59939;52.516;13.420;2023-06-22T00:45:17;23.85;;;14.88;;
72065;SDS011;59939;52.516;13.420;2023-06-22T00:48:23;22.83;;;14.13;;
72065;SDS011;59939;52.516;13.420;2023-06-22T00:51:28;21.77;;;14.50;;
72065;SDS011;59939;52.516;13.420;2023-06-22T00:54:32;24.85;;;14.70;;
72065;SDS011;59939;52.516;13.420;2023-06-22T00:57:37;22.65;;;15.00;;
72065;SDS011;59939;52.516;13.420;2023-06-22T01:00:44;23.90;;;14.32;;
72065;SDS011;59939;52.516;13.420;2023-06-22T01:03:50;25.10;;;16.33;;
72065;SDS011;59939;52.516;13.420;2023-06-22T01:06:55;26.40;;;15.68;;
72065;SDS011;59939;52.516;13.420;2023-06-22T01:13:07;23.10;;;15.10;;
72065;SDS011;59939;52.516;13.420;2023-06-22T01:16:16;22.08;;;15.15;;
72065;SDS011;59939;52.516;13.420;2023-06-22T01:23:32;21.75;;;13.98;;
72065;SDS011;59939;52.516;13.420;2023-06-22T01:26:38;23.73;;;15.40;;
72065;SDS011;59939;52.516;13.420;2023-06-22T01:29:43;24.83;;;15.52;;
72065;SDS011;59939;52.516;13.420;2023-06-22T01:32:50;24.23;;;15.23;;
72065;SDS011;59939;52.516;13.420;2023-06-22T01:35:55;23.25;;;15.43;;
72065;SDS011;59939;52.516;13.420;2023-06-22T01:39:01;25.25;;;16.92;;
72065;SDS011;59939;52.516;13.420;2023-06-22T01:42:06;23.52;;;14.70;;
72065;SDS011;59939;52.516;13.420;2023-06-22T01:45:11;24.00;;;16.17;;
72065;SDS011;59939;52.516;13.420;2023-06-22T01:48:17;26.08;;;16.55;;
72065;SDS011;59939;52.516;13.420;2023-06-22T01:51:21;24.00;;;16.13;;
72065;SDS011;59939;52.516;13.420;2023-06-22T01:54:25;25.83;;;17.38;;
72065;SDS011;59939;52.516;13.420;2023-06-22T01:57:32;25.15;;;16.83;;
72065;SDS011;59939;52.516;13.420;2023-06-22T02:00:37;26.75;;;17.00;;
72065;SDS011;59939;52.516;13.420;2023-06-22T02:03:42;28.13;;;17.98;;
72065;SDS011;59939;52.516;13.420;2023-06-22T02:06:50;25.08;;;16.95;;
72065;SDS011;59939;52.516;13.420;2023-06-22T02:09:58;25.20;;;17.95;;
72065;SDS011;59939;52.516;13.420;2023-06-22T02:13:04;26.30;;;17.42;;
72065;SDS011;59939;52.516;13.420;2023-06-22T02:16:11;25.52;;;16.58;;
72065;SDS011;59939;52.516;13.420;2023-06-22T02:19:17;27.02;;;17.25;;
72065;SDS011;59939;52.516;13.420;2023-06-22T02:22:25;28.10;;;17.27;;
72065;SDS011;59939;52.516;13.420;2023-06-22T02:25:29;24.08;;;16.17;;
72065;SDS011;59939;52.516;13.420;2023-06-22T02:28:34;26.40;;;17.85;;
72065;SDS011;59939;52.516;13.420;2023-06-22T02:31:40;25.85;;;17.67;;
72065;SDS011;59939;52.516;13.420;2023-06-22T02:34:44;25.67;;;17.42;;
72065;SDS011;59939;52.516;13.420;2023-06-22T02:37:52;24.73;;;16.83;;
72065;SDS011;59939;52.516;13.420;2023-06-22T02:40:56;24.88;;;16.77;;
72065;SDS011;59939;52.516;13.420;2023-06-22T02:44:08;25.85;;;17.65;;
72065;SDS011;59939;52.516;13.420;2023-06-22T02:47:13;27.80;;;17.73;;
72065;SDS011;59939;52.516;13.420;2023-06-22T02:50:19;27.38;;;19.13;;
72065;SDS011;59939;52.516;13.420;2023-06-22T02:53:25;26.77;;;19.40;;
72065;SDS011;59939;52.516;13.420;2023-06-22T02:56:29;27.10;;;18.38;;
72065;SDS011;59939;52.516;13.420;2023-06-22T02:59:41;26.27;;;17.67;;
72065;SDS011;59939;52.516;13.420;2023-06-22T03:02:54;30.83;;;19.38;;
72065;SDS011;59939;52.516;13.420;2023-06-22T03:06:02;29.85;;;18.77;;
72065;SDS011;59939;52.516;13.420;2023-06-22T03:09:08;29.95;;;19.08;;
72065;SDS011;59939;52.516;13.420;2023-06-22T03:12:13;27.88;;;19.00;;
72065;SDS011;59939;52.516;13.420;2023-06-22T03:15:30;26.90;;;18.80;;
72065;SDS011;59939;52.516;13.420;2023-06-22T03:18:35;23.38;;;16.02;;
72065;SDS011;59939;52.516;13.420;2023-06-22T03:25:16;22.33;;;15.05;;
72065;SDS011;59939;52.516;13.420;2023-06-22T03:28:23;22.80;;;13.90;;
72065;SDS011;59939;52.516;13.420;2023-06-22T03:31:27;22.35;;;13.35;;
72065;SDS011;59939;52.516;13.420;2023-06-22T03:34:31;23.45;;;12.95;;
72065;SDS011;59939;52.516;13.420;2023-06-22T03:37:40;18.50;;;12.13;;
72065;SDS011;59939;52.516;13.420;2023-06-22T03:44:20;22.25;;;12.30;;
72065;SDS011;59939;52.516;13.420;2023-06-22T03:50:54;22.00;;;13.02;;
72065;SDS011;59939;52.516;13.420;2023-06-22T03:54:00;21.75;;;12.10;;
72065;SDS011;59939;52.516;13.420;2023-06-22T03:57:05;18.42;;;11.30;;
72065;SDS011;59939;52.516;13.420;2023-06-22T04:00:11;17.67;;;10.52;;
72065;SDS011;59939;52.516;13.420;2023-06-22T04:03:23;23.73;;;11.77;;
72065;SDS011;59939;52.516;13.420;2023-06-22T04:06:27;17.67;;;10.63;;
72065;SDS011;59939;52.516;13.420;2023-06-22T04:09:33;18.45;;;10.18;;
72065;SDS011;59939;52.516;13.420;2023-06-22T04:12:38;16.55;;;9.27;;
72065;SDS011;59939;52.516;13.420;2023-06-22T04:15:42;17.27;;;9.02;;
72065;SDS011;59939;52.516;13.420;2023-06-22T04:18:46;16.33;;;8.45;;
72065;SDS011;59939;52.516;13.420;2023-06-22T04:21:50;15.82;;;8.52;;
72065;SDS011;59939;52.516;13.420;2023-06-22T04:24:56;15.80;;;7.80;;
72065;SDS011;59939;52.516;13.420;2023-06-22T04:28:06;15.68;;;7.07;;
72065;SDS011;59939;52.516;13.420;2023-06-22T04:31:15;16.15;;;7.07;;
72065;SDS011;59939;52.516;13.420;2023-06-22T04:34:20;15.38;;;7.43;;
72065;SDS011;59939;52.516;13.420;2023-06-22T04:37:24;16.75;;;7.15;;
72065;SDS011;59939;52.516;13.420;2023-06-22T04:40:28;15.77;;;6.85;;
72065;SDS011;59939;52.516;13.420;2023-06-22T04:43:33;12.95;;;6.65;;
72065;SDS011;59939;52.516;13.420;2023-06-22T04:46:39;12.80;;;5.82;;
72065;SDS011;59939;52.516;13.420;2023-06-22T04:49:45;14.27;;;6.38;;
72065;SDS011;59939;52.516;13.420;2023-06-22T04:52:51;14.48;;;6.03;;
72065;SDS011;59939;52.516;13.420;2023-06-22T04:55:55;13.80;;;6.07;;
72065;SDS011;59939;52.516;13.420;2023-06-22T04:59:01;15.25;;;6.22;;
72065;SDS011;59939;52.516;13.420;2023-06-22T05:02:14;16.52;;;6.10;;
72065;SDS011;59939;52.516;13.420;2023-06-22T05:05:20;15.10;;;5.88;;
72065;SDS011;59939;52.516;13.420;2023-06-22T05:08:27;13.20;;;5.90;;
72065;SDS011;59939;52.516;13.420;2023-06-22T05:11:33;14.50;;;5.65;;
72065;SDS011;59939;52.516;13.420;2023-06-22T05:14:37;19.17;;;5.88;;
72065;SDS011;59939;52.516;13.420;2023-06-22T05:17:41;12.07;;;4.85;;
72065;SDS011;59939;52.516;13.420;2023-06-22T05:24:43;14.27;;;6.10;;
72065;SDS011;59939;52.516;13.420;2023-06-22T05:27:47;14.20;;;6.03;;
72065;SDS011;59939;52.516;13.420;2023-06-22T05:30:52;13.13;;;5.57;;
72065;SDS011;59939;52.516;13.420;2023-06-22T05:33:56;12.90;;;6.22;;
72065;SDS011;59939;52.516;13.420;2023-06-22T05:37:02;13.85;;;5.95;;
72065;SDS011;59939;52.516;13.420;2023-06-22T05:40:06;13.48;;;6.32;;
72065;SDS011;59939;52.516;13.420;2023-06-22T05:46:40;12.13;;;5.70;;
72065;SDS011;59939;52.516;13.420;2023-06-22T05:49:48;15.95;;;6.18;;
72065;SDS011;59939;52.516;13.420;2023-06-22T05:52:59;17.08;;;6.45;;
72065;SDS011;59939;52.516;13.420;2023-06-22T05:56:03;14.55;;;6.20;;
72065;SDS011;59939;52.516;13.420;2023-06-22T05:59:07;14.50;;;6.50;;
72065;SDS011;59939;52.516;13.420;2023-06-22T06:02:11;13.30;;;6.13;;
72065;SDS011;59939;52.516;13.420;2023-06-22T06:05:17;13.75;;;6.10;;
72065;SDS011;59939;52.516;13.420;2023-06-22T06:08:22;15.15;;;6.40;;
72065;SDS011;59939;52.516;13.420;2023-06-22T06:11:33;16.20;;;6.28;;
72065;SDS011;59939;52.516;13.420;2023-06-22T06:14:37;15.60;;;5.45;;
72065;SDS011;59939;52.516;13.420;2023-06-22T06:17:51;13.60;;;5.70;;
72065;SDS011;59939;52.516;13.420;2023-06-22T06:20:55;11.75;;;5.00;;
72065;SDS011;59939;52.516;13.420;2023-06-22T06:23:59;11.10;;;4.90;;
72065;SDS011;59939;52.516;13.420;2023-06-22T06:27:04;11.38;;;4.85;;
72065;SDS011;59939;52.516;13.420;2023-06-22T06:30:08;12.40;;;5.05;;
72065;SDS011;59939;52.516;13.420;2023-06-22T06:33:15;14.77;;;5.00;;
72065;SDS011;59939;52.516;13.420;2023-06-22T06:36:20;13.60;;;4.50;;
72065;SDS011;59939;52.516;13.420;2023-06-22T06:39:27;12.63;;;4.63;;
72065;SDS011;59939;52.516;13.420;2023-06-22T06:42:40;12.93;;;4.78;;
72065;SDS011;59939;52.516;13.420;2023-06-22T06:45:45;12.23;;;4.30;;
72065;SDS011;59939;52.516;13.420;2023-06-22T06:48:49;12.77;;;4.45;;
72065;SDS011;59939;52.516;13.420;2023-06-22T06:51:54;12.75;;;4.50;;
72065;SDS011;59939;52.516;13.420;2023-06-22T06:54:59;12.05;;;4.80;;
72065;SDS011;59939;52.516;13.420;2023-06-22T06:58:05;10.73;;;4.13;;
72065;SDS011;59939;52.516;13.420;2023-06-22T07:01:12;12.23;;;4.03;;
72065;SDS011;59939;52.516;13.420;2023-06-22T07:04:26;10.80;;;4.18;;
72065;SDS011;59939;52.516;13.420;2023-06-22T07:07:34;10.90;;;4.18;;
72065;SDS011;59939;52.516;13.420;2023-06-22T07:10:41;8.57;;;3.65;;
72065;SDS011;59939;52.516;13.420;2023-06-22T07:13:45;9.60;;;4.20;;
72065;SDS011;59939;52.516;13.420;2023-06-22T07:16:49;10.60;;;3.95;;
72065;SDS011;59939;52.516;13.420;2023-06-22T07:20:01;10.07;;;4.93;;
72065;SDS011;59939;52.516;13.420;2023-06-22T07:23:06;10.68;;;4.07;;
72065;SDS011;59939;52.516;13.420;2023-06-22T07:26:10;8.30;;;3.58;;
72065;SDS011;59939;52.516;13.420;2023-06-22T07:29:16;9.10;;;3.90;;
72065;SDS011;59939;52.516;13.420;2023-06-22T07:35:53;9.43;;;3.50;;
72065;SDS011;59939;52.516;13.420;2023-06-22T07:38:57;9.00;;;3.28;;
72065;SDS011;59939;52.516;13.420;2023-06-22T07:42:02;12.30;;;3.55;;
72065;SDS011;59939;52.516;13.420;2023-06-22T07:45:09;9.15;;;3.00;;
72065;SDS011;59939;52.516;13.420;2023-06-22T07:48:21;11.65;;;3.13;;
72065;SDS011;59939;52.516;13.420;2023-06-22T07:51:32;7.85;;;2.75;;
72065;SDS011;59939;52.516;13.420;2023-06-22T07:54:36;9.77;;;3.28;;
72065;SDS011;59939;52.516;13.420;2023-06-22T07:57:41;9.05;;;3.40;;
72065;SDS011;59939;52.516;13.420;2023-06-22T08:00:45;7.45;;;2.92;;
72065;SDS011;59939;52.516;13.420;2023-06-22T08:03:50;9.63;;;3.30;;
72065;SDS011;59939;52.516;13.420;2023-06-22T08:07:02;9.93;;;3.20;;
72065;SDS011;59939;52.516;13.420;2023-06-22T08:10:10;8.02;;;3.28;;
72065;SDS011;59939;52.516;13.420;2023-06-22T08:13:14;10.15;;;3.33;;
72065;SDS011;59939;52.516;13.420;2023-06-22T08:16:18;11.88;;;3.95;;
72065;SDS011;59939;52.516;13.420;2023-06-22T08:19:23;8.20;;;3.08;;
72065;SDS011;59939;52.516;13.420;2023-06-22T08:22:27;9.93;;;3.47;;
72065;SDS011;59939;52.516;13.420;2023-06-22T08:25:32;10.05;;;3.33;;
72065;SDS011;59939;52.516;13.420;2023-06-22T08:28:37;10.90;;;3.25;;
72065;SDS011;59939;52.516;13.420;2023-06-22T08:31:41;9.65;;;3.03;;
72065;SDS011;59939;52.516;13.420;2023-06-22T08:34:46;13.38;;;4.57;;
72065;SDS011;59939;52.516;13.420;2023-06-22T08:37:54;14.20;;;5.88;;
72065;SDS011;59939;52.516;13.420;2023-06-22T08:41:00;16.02;;;4.93;;
72065;SDS011;59939;52.516;13.420;2023-06-22T08:44:04;10.43;;;4.13;;
72065;SDS011;59939;52.516;13.420;2023-06-22T08:47:09;12.25;;;4.72;;
72065;SDS011;59939;52.516;13.420;2023-06-22T08:50:13;12.73;;;4.93;;
72065;SDS011;59939;52.516;13.420;2023-06-22T08:53:19;11.93;;;5.38;;
72065;SDS011;59939;52.516;13.420;2023-06-22T08:56:23;12.32;;;5.05;;
72065;SDS011;59939;52.516;13.420;2023-06-22T08:59:28;9.88;;;3.70;;
72065;SDS011;59939;52.516;13.420;2023-06-22T09:02:32;10.38;;;3.83;;
72065;SDS011;59939;52.516;13.420;2023-06-22T09:05:43;8.93;;;3.53;;
72065;SDS011;59939;52.516;13.420;2023-06-22T09:08:48;9.57;;;3.80;;
72065;SDS011;59939;52.516;13.420;2023-06-22T09:11:56;11.65;;;3.60;;
72065;SDS011;59939;52.516;13.420;2023-06-22T09:15:00;9.20;;;3.78;;
72065;SDS011;59939;52.516;13.420;2023-06-22T09:18:04;9.75;;;3.60;;
72065;SDS011;59939;52.516;13.420;2023-06-22T09:21:08;10.43;;;3.95;;
72065;SDS011;59939;52.516;13.420;2023-06-22T09:24:15;11.13;;;4.03;;
72065;SDS011;59939;52.516;13.420;2023-06-22T09:27:19;9.90;;;3.50;;
72065;SDS011;59939;52.516;13.420;2023-06-22T09:30:23;9.35;;;3.80;;
72065;SDS011;59939;52.516;13.420;2023-06-22T09:33:35;15.25;;;3.53;;
72065;SDS011;59939;52.516;13.420;2023-06-22T09:36:40;8.73;;;3.55;;
72065;SDS011;59939;52.516;13.420;2023-06-22T09:39:59;9.43;;;3.65;;
72065;SDS011;59939;52.516;13.420;2023-06-22T09:43:10;7.93;;;3.35;;
72065;SDS011;59939;52.516;13.420;2023-06-22T09:46:22;13.20;;;4.10;;
72065;SDS011;59939;52.516;13.420;2023-06-22T09:49:30;11.23;;;3.70;;
72065;SDS011;59939;52.516;13.420;2023-06-22T09:52:40;9.73;;;3.50;;
72065;SDS011;59939;52.516;13.420;2023-06-22T09:55:50;12.38;;;4.07;;
72065;SDS011;59939;52.516;13.420;2023-06-22T09:58:54;16.10;;;4.03;;
72065;SDS011;59939;52.516;13.420;2023-06-22T10:01:59;9.20;;;3.50;;
72065;SDS011;59939;52.516;13.420;2023-06-22T10:05:03;11.00;;;3.83;;
72065;SDS011;59939;52.516;13.420;2023-06-22T10:08:10;9.07;;;3.72;;
72065;SDS011;59939;52.516;13.420;2023-06-22T10:11:14;9.70;;;3.45;;
72065;SDS011;59939;52.516;13.420;2023-06-22T10:14:27;11.80;;;4.28;;
72065;SDS011;59939;52.516;13.420;2023-06-22T10:17:47;8.50;;;3.58;;
72065;SDS011;59939;52.516;13.420;2023-06-22T10:20:58;12.32;;;4.80;;
72065;SDS011;59939;52.516;13.420;2023-06-22T10:24:02;10.82;;;3.85;;
72065;SDS011;59939;52.516;13.420;2023-06-22T10:27:13;9.50;;;3.70;;
72065;SDS011;59939;52.516;13.420;2023-06-22T10:30:17;9.95;;;4.13;;
72065;SDS011;59939;52.516;13.420;2023-06-22T10:33:21;9.00;;;4.07;;
72065;SDS011;59939;52.516;13.420;2023-06-22T10:36:26;10.23;;;3.78;;
72065;SDS011;59939;52.516;13.420;2023-06-22T10:39:36;9.18;;;4.03;;
72065;SDS011;59939;52.516;13.420;2023-06-22T10:42:41;10.88;;;4.13;;
72065;SDS011;59939;52.516;13.420;2023-06-22T10:45:47;9.85;;;4.05;;
72065;SDS011;59939;52.516;13.420;2023-06-22T10:48:51;8.57;;;3.63;;
72065;SDS011;59939;52.516;13.420;2023-06-22T10:52:07;8.65;;;3.70;;
72065;SDS011;59939;52.516;13.420;2023-06-22T10:58:58;11.40;;;4.13;;
72065;SDS011;59939;52.516;13.420;2023-06-22T11:02:16;7.97;;;3.83;;
72065;SDS011;59939;52.516;13.420;2023-06-22T11:05:22;9.02;;;3.55;;
72065;SDS011;59939;52.516;13.420;2023-06-22T11:08:26;9.85;;;4.05;;
72065;SDS011;59939;52.516;13.420;2023-06-22T11:11:31;9.43;;;3.80;;
72065;SDS011;59939;52.516;13.420;2023-06-22T11:14:39;9.55;;;4.10;;
72065;SDS011;59939;52.516;13.420;2023-06-22T11:17:43;10.20;;;4.05;;
72065;SDS011;59939;52.516;13.420;2023-06-22T11:20:54;9.15;;;3.92;;
72065;SDS011;59939;52.516;13.420;2023-06-22T11:23:59;9.50;;;4.00;;
72065;SDS011;59939;52.516;13.420;2023-06-22T11:27:04;10.75;;;4.32;;
72065;SDS011;59939;52.516;13.420;2023-06-22T11:30:08;10.43;;;4.00;;
72065;SDS011;59939;52.516;13.420;2023-06-22T11:33:14;7.97;;;3.90;;
72065;SDS011;59939;52.516;13.420;2023-06-22T11:36:19;12.77;;;5.43;;
72065;SDS011;59939;52.516;13.420;2023-06-22T11:39:23;11.93;;;5.35;;
72065;SDS011;59939;52.516;13.420;2023-06-22T11:42:29;16.00;;;6.43;;
72065;SDS011;59939;52.516;13.420;2023-06-22T11:45:35;11.90;;;4.85;;
72065;SDS011;59939;52.516;13.420;2023-06-22T11:48:39;13.15;;;6.30;;
72065;SDS011;59939;52.516;13.420;2023-06-22T11:51:46;16.50;;;6.57;;
72065;SDS011;59939;52.516;13.420;2023-06-22T11:54:50;12.98;;;6.90;;
72065;SDS011;59939;52.516;13.420;2023-06-22T11:57:54;11.07;;;4.57;;
72065;SDS011;59939;52.516;13.420;2023-06-22T12:00:59;12.43;;;5.53;;
72065;SDS011;59939;52.516;13.420;2023-06-22T12:04:03;13.05;;;5.63;;
72065;SDS011;59939;52.516;13.420;2023-06-22T12:07:09;11.68;;;4.97;;
72065;SDS011;59939;52.516;13.420;2023-06-22T12:10:14;9.70;;;3.78;;
72065;SDS011;59939;52.516;13.420;2023-06-22T12:13:20;10.20;;;4.07;;
72065;SDS011;59939;52.516;13.420;2023-06-22T12:16:32;10.95;;;3.85;;
72065;SDS011;59939;52.516;13.420;2023-06-22T12:19:39;10.30;;;3.83;;
72065;SDS011;59939;52.516;13.420;2023-06-22T12:22:43;9.30;;;3.80;;
72065;SDS011;59939;52.516;13.420;2023-06-22T12:25:47;11.07;;;4.15;;
72065;SDS011;59939;52.516;13.420;2023-06-22T12:28:52;8.82;;;4.18;;
72065;SDS011;59939;52.516;13.420;2023-06-22T12:31:56;10.73;;;4.60;;
72065;SDS011;59939;52.516;13.420;2023-06-22T12:35:02;11.02;;;4.70;;
72065;SDS011;59939;52.516;13.420;2023-06-22T12:41:37;11.15;;;4.05;;
72065;SDS011;59939;52.516;13.420;2023-06-22T12:44:41;10.38;;;4.15;;
72065;SDS011;59939;52.516;13.420;2023-06-22T12:47:52;9.90;;;4.30;;
72065;SDS011;59939;52.516;13.420;2023-06-22T12:50:56;8.10;;;3.80;;
72065;SDS011;59939;52.516;13.420;2023-06-22T12:54:01;10.85;;;4.05;;
72065;SDS011;59939;52.516;13.420;2023-06-22T12:57:19;10.68;;;4.60;;
72065;SDS011;59939;52.516;13.420;2023-06-22T13:00:27;8.60;;;4.13;;
72065;SDS011;59939;52.516;13.420;2023-06-22T13:03:31;10.48;;;4.38;;
72065;SDS011;59939;52.516;13.420;2023-06-22T13:06:35;9.77;;;4.28;;
72065;SDS011;59939;52.516;13.420;2023-06-22T13:09:40;8.95;;;4.18;;
72065;SDS011;59939;52.516;13.420;2023-06-22T13:12:44;11.00;;;4.47;;
72065;SDS011;59939;52.516;13.420;2023-06-22T13:15:48;10.50;;;4.43;;
72065;SDS011;59939;52.516;13.420;2023-06-22T13:18:54;10.90;;;4.32;;
72065;SDS011;59939;52.516;13.420;2023-06-22T13:21:58;9.10;;;4.25;;
72065;SDS011;59939;52.516;13.420;2023-06-22T13:25:10;11.13;;;4.05;;
72065;SDS011;59939;52.516;13.420;2023-06-22T13:28:16;10.55;;;4.20;;
72065;SDS011;59939;52.516;13.420;2023-06-22T13:31:26;12.82;;;4.45;;
72065;SDS011;59939;52.516;13.420;2023-06-22T13:34:31;9.13;;;4.30;;
72065;SDS011;59939;52.516;13.420;2023-06-22T13:37:35;10.60;;;4.38;;
72065;SDS011;59939;52.516;13.420;2023-06-22T13:40:40;8.43;;;4.00;;
72065;SDS011;59939;52.516;13.420;2023-06-22T13:43:44;10.43;;;4.50;;
72065;SDS011;59939;52.516;13.420;2023-06-22T13:46:50;9.85;;;4.35;;
72065;SDS011;59939;52.516;13.420;2023-06-22T13:49:56;11.35;;;4.28;;
72065;SDS011;59939;52.516;13.420;2023-06-22T13:53:01;10.73;;;4.80;;
72065;SDS011;59939;52.516;13.420;2023-06-22T13:56:15;10.95;;;4.20;;
72065;SDS011;59939;52.516;13.420;2023-06-22T13:59:22;10.60;;;4.50;;
72065;SDS011;59939;52.516;13.420;2023-06-22T14:02:26;10.65;;;4.78;;
72065;SDS011;59939;52.516;13.420;2023-06-22T14:05:31;13.65;;;5.10;;
72065;SDS011;59939;52.516;13.420;2023-06-22T14:08:36;12.48;;;4.30;;
72065;SDS011;59939;52.516;13.420;2023-06-22T14:11:43;9.43;;;4.40;;
72065;SDS011;59939;52.516;13.420;2023-06-22T14:14:50;9.73;;;4.47;;
72065;SDS011;59939;52.516;13.420;2023-06-22T14:17:58;8.50;;;4.20;;
72065;SDS011;59939;52.516;13.420;2023-06-22T14:21:04;10.55;;;4.60;;
72065;SDS011;59939;52.516;13.420;2023-06-22T14:24:09;10.68;;;4.20;;
72065;SDS011;59939;52.516;13.420;2023-06-22T14:27:13;11.95;;;5.50;;
72065;SDS011;59939;52.516;13.420;2023-06-22T14:30:18;9.02;;;4.40;;
72065;SDS011;59939;52.516;13.420;2023-06-22T14:33:22;12.10;;;5.03;;
72065;SDS011;59939;52.516;13.420;2023-06-22T14:36:27;9.70;;;4.60;;
72065;SDS011;59939;52.516;13.420;2023-06-22T14:43:01;11.45;;;4.88;;
72065;SDS011;59939;52.516;13.420;2023-06-22T14:46:07;10.32;;;4.50;;
72065;SDS011;59939;52.516;13.420;2023-06-22T14:49:11;9.10;;;4.40;;
72065;SDS011;59939;52.516;13.420;2023-06-22T14:52:16;10.35;;;4.63;;
72065;SDS011;59939;52.516;13.420;2023-06-22T14:55:21;10.50;;;4.78;;
72065;SDS011;59939;52.516;13.420;2023-06-22T14:58:25;9.50;;;4.30;;
72065;SDS011;59939;52.516;13.420;2023-06-22T15:01:29;11.65;;;4.57;;
72065;SDS011;59939;52.516;13.420;2023-06-22T15:04:35;9.88;;;4.60;;
72065;SDS011;59939;52.516;13.420;2023-06-22T15:07:39;10.45;;;4.47;;
72065;SDS011;59939;52.516;13.420;2023-06-22T15:10:44;11.50;;;4.38;;
72065;SDS011;59939;52.516;13.420;2023-06-22T15:13:48;11.55;;;4.82;;
72065;SDS011;59939;52.516;13.420;2023-06-22T15:16:52;11.85;;;4.38;;
72065;SDS011;59939;52.516;13.420;2023-06-22T15:19:57;11.95;;;4.80;;
72065;SDS011;59939;52.516;13.420;2023-06-22T15:23:02;10.68;;;4.70;;
72065;SDS011;59939;52.516;13.420;2023-06-22T15:26:08;9.65;;;4.53;;
72065;SDS011;59939;52.516;13.420;2023-06-22T15:29:15;11.10;;;4.60;;
72065;SDS011;59939;52.516;13.420;2023-06-22T15:32:20;12.05;;;4.82;;
72065;SDS011;59939;52.516;13.420;2023-06-22T15:35:25;11.65;;;4.65;;
72065;SDS011;59939;52.516;13.420;2023-06-22T15:38:29;11.32;;;5.25;;
72065;SDS011;59939;52.516;13.420;2023-06-22T15:41:35;11.25;;;5.35;;
72065;SDS011;59939;52.516;13.420;2023-06-22T15:44:41;11.55;;;5.13;;
72065;SDS011;59939;52.516;13.420;2023-06-22T15:47:45;9.85;;;4.90;;
72065;SDS011;59939;52.516;13.420;2023-06-22T15:50:50;11.38;;;5.07;;
72065;SDS011;59939;52.516;13.420;2023-06-22T15:54:07;10.93;;;4.88;;
72065;SDS011;59939;52.516;13.420;2023-06-22T15:57:13;11.52;;;5.18;;
72065;SDS011;59939;52.516;13.420;2023-06-22T16:00:17;11.18;;;5.15;;
72065;SDS011;59939;52.516;13.420;2023-06-22T16:03:22;11.65;;;5.13;;
72065;SDS011;59939;52.516;13.420;2023-06-22T16:06:26;12.50;;;5.10;;
72065;SDS011;59939;52.516;13.420;2023-06-22T16:09:44;11.10;;;5.28;;
72065;SDS011;59939;52.516;13.420;2023-06-22T16:12:48;10.48;;;4.75;;
72065;SDS011;59939;52.516;13.420;2023-06-22T16:15:55;10.93;;;4.90;;
72065;SDS011;59939;52.516;13.420;2023-06-22T16:18:59;10.43;;;4.88;;
72065;SDS011;59939;52.516;13.420;2023-06-22T16:22:11;9.88;;;4.97;;
72065;SDS011;59939;52.516;13.420;2023-06-22T16:25:17;11.00;;;5.00;;
72065;SDS011;59939;52.516;13.420;2023-06-22T16:28:22;11.13;;;5.20;;
72065;SDS011;59939;52.516;13.420;2023-06-22T16:31:29;12.10;;;5.30;;
72065;SDS011;59939;52.516;13.420;2023-06-22T16:34:35;12.00;;;5.05;;
72065;SDS011;59939;52.516;13.420;2023-06-22T16:37:39;10.02;;;4.90;;
72065;SDS011;59939;52.516;13.420;2023-06-22T16:40:43;11.52;;;5.35;;
72065;SDS011;59939;52.516;13.420;2023-06-22T16:43:48;12.02;;;5.15;;
72065;SDS011;59939;52.516;13.420;2023-06-22T16:46:52;11.48;;;5.18;;
72065;SDS011;59939;52.516;13.420;2023-06-22T16:49:57;10.73;;;5.25;;
72065;SDS011;59939;52.516;13.420;2023-06-22T16:53:01;12.35;;;5.30;;
72065;SDS011;59939;52.516;13.420;2023-06-22T16:56:05;14.82;;;4.97;;
72065;SDS011;59939;52.516;13.420;2023-06-22T16:59:09;12.30;;;5.63;;
72065;SDS011;59939;52.516;13.420;2023-06-22T17:02:16;11.68;;;5.55;;
72065;SDS011;59939;52.516;13.420;2023-06-22T17:05:23;11.75;;;4.80;;
72065;SDS011;59939;52.516;13.420;2023-06-22T17:08:31;12.43;;;5.47;;
72065;SDS011;59939;52.516;13.420;2023-06-22T17:11:38;14.25;;;6.47;;
72065;SDS011;59939;52.516;13.420;2023-06-22T17:14:44;11.85;;;5.35;;
72065;SDS011;59939;52.516;13.420;2023-06-22T17:17:49;11.18;;;5.30;;
72065;SDS011;59939;52.516;13.420;2023-06-22T17:20:55;13.27;;;6.63;;
72065;SDS011;59939;52.516;13.420;2023-06-22T17:24:02;13.27;;;6.07;;
72065;SDS011;59939;52.516;13.420;2023-06-22T17:27:06;12.38;;;5.05;;
72065;SDS011;59939;52.516;13.420;2023-06-22T17:30:15;10.73;;;4.90;;
72065;SDS011;59939;52.516;13.420;2023-06-22T17:33:39;11.57;;;5.18;;
72065;SDS011;59939;52.516;13.420;2023-06-22T17:36:45;15.90;;;6.50;;
72065;SDS011;59939;52.516;13.420;2023-06-22T17:39:52;13.13;;;5.65;;
72065;SDS011;59939;52.516;13.420;2023-06-22T17:43:02;12.60;;;5.43;;
72065;SDS011;59939;52.516;13.420;2023-06-22T17:46:06;24.70;;;9.57;;
72065;SDS011;59939;52.516;13.420;2023-06-22T17:49:11;20.52;;;8.90;;
72065;SDS011;59939;52.516;13.420;2023-06-22T17:52:17;26.42;;;9.60;;
72065;SDS011;59939;52.516;13.420;2023-06-22T17:55:22;11.73;;;5.53;;
72065;SDS011;59939;52.516;13.420;2023-06-22T17:58:29;12.70;;;5.75;;
72065;SDS011;59939;52.516;13.420;2023-06-22T18:01:37;26.38;;;8.93;;
72065;SDS011;59939;52.516;13.420;2023-06-22T18:04:44;14.57;;;7.50;;
72065;SDS011;59939;52.516;13.420;2023-06-22T18:08:05;32.83;;;8.55;;
72065;SDS011;59939;52.516;13.420;2023-06-22T18:11:09;31.50;;;9.90;;
72065;SDS011;59939;52.516;13.420;2023-06-22T18:14:15;19.23;;;7.82;;
72065;SDS011;59939;52.516;13.420;2023-06-22T18:17:21;19.85;;;7.70;;
72065;SDS011;59939;52.516;13.420;2023-06-22T18:20:28;17.25;;;7.15;;
72065;SDS011;59939;52.516;13.420;2023-06-22T18:23:33;16.15;;;7.38;;
72065;SDS011;59939;52.516;13.420;2023-06-22T18:26:39;16.00;;;7.75;;
72065;SDS011;59939;52.516;13.420;2023-06-22T18:29:44;13.23;;;6.18;;
72065;SDS011;59939;52.516;13.420;2023-06-22T18:32:51;12.40;;;5.70;;
72065;SDS011;59939;52.516;13.420;2023-06-22T18:35:55;14.20;;;6.00;;
72065;SDS011;59939;52.516;13.420;2023-06-22T18:39:01;11.70;;;5.65;;
72065;SDS011;59939;52.516;13.420;2023-06-22T18:42:14;12.20;;;5.65;;
72065;SDS011;59939;52.516;13.420;2023-06-22T18:45:25;10.98;;;5.30;;
72065;SDS011;59939;52.516;13.420;2023-06-22T18:48:31;13.68;;;5.78;;